Norwegian Epic — C6XP7 — position and weather

sailwx.info

Track history (hours):
 
Tides and Currents Weather Stations Pressure Air Temp Water Temp Dewpoint Dewpoint Depression Visibility Wind Speed Wind Dir Waves Ship Positions

Norwegian Epic

Last reported at 2014-Oct-21 00:00 UTC. Time now 2014-Oct-21 11:53 UTC.
Position N 40°42' E 012°54'.

Length 329 m; draft 9 m.

Type: Passenger vessel. MMSI: 311018500.

Waves 0.5 meters (2 feet), 1 second period

Barometer 1019.0 mb
Air temperature 22.0 ° C
Visibility: greater than 10.8 NM
Water temperature 23.0 ° C

Date/timePositionNaut miles runAvg speedWind from/ knotsBaromVisibWave heightAir tempDewpointWater temp
2014-Oct-21 00:00N 40°42' E 012°54'16713.4 1019.010.8 0.522.0 23.0
2014-Oct-20 11:33N 41°19' E 009°18'1917.7
2014-Oct-20 10:29N 41°17' E 008°53'3216.5
2014-Oct-20 08:32N 41°17' E 008°10'4017.2
2014-Oct-20 06:14N 41°17' E 007°17'1040.1
2014-Oct-20 06:00N 41°12' E 007°06'2215.0 300 / 161023.0 1.022.320.422.0
2014-Oct-20 04:32N 41°17' E 006°38'3617.5
2014-Oct-20 02:29N 41°16' E 005°50'1817.5
2014-Oct-20 01:26N 41°16' E 005°26'2317.5
2014-Oct-20 00:06N 41°16' E 004°54'657.5
2014-Oct-20 00:00N 41°12' E 004°48'614.4 1023.010.8 1.522.0 23.0
2014-Oct-19 23:33N 41°16' E 004°42'2217.3
2014-Oct-19 22:18N 41°16' E 004°13'1216.7
2014-Oct-19 21:33N 41°16' E 003°56'2624.7
2014-Oct-19 20:30N 41°16' E 003°22'8 8.0
2014-Oct-19 19:33N 41°16' E 003°12'1616.1
2014-Oct-19 18:34N 41°16' E 002°50'1616.0
2014-Oct-19 17:33N 41°16' E 002°29'1513.3
2014-Oct-19 16:26N 41°20' E 002°10'32 1.9
2014-Oct-19 00:00N 40°48' E 002°06'1124.6 1021.010.8 1.523.0 23.0
2014-Oct-18 23:34N 40°46' E 002°20'2119.2
2014-Oct-18 22:28N 40°25' E 002°12'1617.8
2014-Oct-18 21:33N 40°09' E 002°12'2019.2
2014-Oct-18 20:30N 39°49' E 002°13'2518.6
2014-Oct-18 19:08N 39°25' E 002°24'1015.7
2014-Oct-18 18:32N 39°28' E 002°36'6 2.8
2014-Oct-18 16:32N 39°33' E 002°38'0 0.0
2014-Oct-18 15:33N 39°33' E 002°38'0 0.0
2014-Oct-18 14:31N 39°33' E 002°38'0 0.0
2014-Oct-18 13:28N 39°33' E 002°38'0 0.0
2014-Oct-18 12:32N 39°33' E 002°38'0 0.0
2014-Oct-18 11:33N 39°33' E 002°38'0 0.0
2014-Oct-18 10:33N 39°33' E 002°38'9 8.3
2014-Oct-18 09:31N 39°25' E 002°33'1817.7
2014-Oct-18 08:30N 39°37' E 002°15'1718.2
2014-Oct-18 07:33N 39°50' E 002°28'2020.2
2014-Oct-18 06:33N 40°06' E 002°45'916.2
2014-Oct-18 06:00N 40°12' E 002°54'1228.0 040 / 151018.0 1.022.920.122.0
2014-Oct-18 05:33N 40°21' E 003°05'2221.9
2014-Oct-18 04:33N 40°36' E 003°26'9320.5
2014-Oct-18 00:00N 41°42' E 004°54'3524.1 1018.010.8 2.523.0 23.0
2014-Oct-17 22:33N 42°06' E 005°27'2121.4
2014-Oct-17 21:33N 42°21' E 005°48'2019.9
2014-Oct-17 20:33N 42°35' E 006°07'2019.8
2014-Oct-17 19:33N 42°49' E 006°27'2019.8
2014-Oct-17 18:33N 43°03' E 006°46'1919.1
2014-Oct-17 17:33N 43°20' E 006°57'1212.4
2014-Oct-17 16:33N 43°32' E 007°01'0 0.2
2014-Oct-17 15:29N 43°32' E 007°01'0 0.0
2014-Oct-17 14:29N 43°32' E 007°01'0 0.0
2014-Oct-17 13:33N 43°32' E 007°01'0 0.0
2014-Oct-17 12:33N 43°32' E 007°01'0 0.0
2014-Oct-17 11:33N 43°32' E 007°01'0 0.0
2014-Oct-17 10:33N 43°32' E 007°01'0 0.0
2014-Oct-17 09:33N 43°32' E 007°01'0 0.0
2014-Oct-17 08:33N 43°32' E 007°01'0 0.0
2014-Oct-17 07:33N 43°32' E 007°01'0 0.0
2014-Oct-17 06:33N 43°32' E 007°01'0 0.1
2014-Oct-17 05:33N 43°32' E 007°01'7 6.9
2014-Oct-17 04:33N 43°28' E 007°08'1313.4
2014-Oct-17 03:33N 43°28' E 007°27'1312.5
2014-Oct-17 02:33N 43°29' E 007°44'2811.5
2014-Oct-17 00:09N 43°30' E 008°22'639.8
2014-Oct-17 00:00N 43°24' E 008°24'921.8 1014.010.8 2.523.0 23.0
2014-Oct-16 23:34N 43°30' E 008°34'1514.5
2014-Oct-16 22:33N 43°31' E 008°54'1414.0
2014-Oct-16 21:33N 43°31' E 009°13'1414.2
2014-Oct-16 20:33N 43°32' E 009°33'1111.2
2014-Oct-16 19:33N 43°33' E 009°48'1211.7
2014-Oct-16 18:33N 43°30' E 010°04'1010.0
2014-Oct-16 17:33N 43°32' E 010°17'1 0.9
2014-Oct-16 16:32N 43°33' E 010°18'0 0.0
2014-Oct-16 15:33N 43°33' E 010°18'0 0.0
2014-Oct-16 14:31N 43°33' E 010°18'0 0.0
2014-Oct-16 13:31N 43°33' E 010°18'0 0.0
2014-Oct-16 12:32N 43°33' E 010°18'0 0.0
2014-Oct-16 11:33N 43°33' E 010°18'0 0.0
2014-Oct-16 10:33N 43°33' E 010°18'0 0.0
2014-Oct-16 09:31N 43°33' E 010°18'0 0.0
2014-Oct-16 08:33N 43°33' E 010°18'0 0.0
2014-Oct-16 07:29N 43°33' E 010°18'0 0.0
2014-Oct-16 06:33N 43°33' E 010°18'0 0.0
2014-Oct-16 05:31N 43°33' E 010°18'0 0.2
2014-Oct-16 04:33N 43°33' E 010°18'9 9.4
2014-Oct-16 03:33N 43°25' E 010°11'1414.3
2014-Oct-16 02:34N 43°11' E 010°06'1615.8
2014-Oct-16 01:33N 42°56' E 009°59'2616.9
2014-Oct-16 00:00N 42°30' E 009°54'122 5.1 1011.010.8 2.022.0 23.0
2014-Oct-15 00:00N 41°24' E 012°12'7316.5 080 / 141009.0 1.024.422.424.0
2014-Oct-14 19:34N 40°40' E 013°30'1919.3
2014-Oct-14 18:34N 40°38' E 013°55'1817.5
2014-Oct-14 17:33N 40°46' E 014°15'4 1.0
2014-Oct-14 13:28N 40°50' E 014°16'0 0.0
2014-Oct-14 12:31N 40°50' E 014°16'0 0.0
2014-Oct-14 11:31N 40°50' E 014°16'0 0.0
2014-Oct-14 10:32N 40°50' E 014°16'0 0.0
2014-Oct-14 09:33N 40°50' E 014°16'0 0.0
2014-Oct-14 08:33N 40°50' E 014°16'59 6.9
2014-Oct-14 00:00N 40°36' E 013°00'37815.8 150 / 161014.0 5.4 23.0 22.0
2014-Oct-13 00:00N 41°12' E 004°42'5716.3 210 / 91010.0 5.4 23.0 22.0
2014-Oct-12 20:29N 41°16' E 003°26'1516.2
2014-Oct-12 19:33N 41°16' E 003°06'1616.1
2014-Oct-12 18:33N 41°16' E 002°45'1716.7
2014-Oct-12 17:33N 41°15' E 002°23'1110.5
2014-Oct-12 16:33N 41°20' E 002°10'1 1.4
2014-Oct-12 15:28N 41°22' E 002°11'0 0.0
2014-Oct-12 14:05N 41°22' E 002°11'0 0.0
2014-Oct-12 13:29N 41°22' E 002°11'0 0.0
2014-Oct-12 12:20N 41°22' E 002°11'0 0.0
2014-Oct-12 11:30N 41°22' E 002°11'0 0.0
2014-Oct-12 10:19N 41°22' E 002°11'0 0.0
2014-Oct-12 07:15N 41°22' E 002°11'0 0.0
2014-Oct-12 06:16N 41°22' E 002°11'0 0.0
2014-Oct-12 05:28N 41°22' E 002°11'0 0.0
2014-Oct-12 04:05N 41°22' E 002°11'0 0.0
2014-Oct-12 03:30N 41°22' E 002°11'0 0.0
2014-Oct-12 02:25N 41°22' E 002°11'3 4.0
2014-Oct-12 01:33N 41°18' E 002°10'1615.5
2014-Oct-12 00:33N 41°03' E 002°11'1017.5
2014-Oct-12 00:00N 40°54' E 002°06'920.4 060 / 151010.0 5.4 22.0 22.0
2014-Oct-11 23:34N 40°46' E 002°12'1716.8
2014-Oct-11 22:33N 40°29' E 002°12'1919.1
2014-Oct-11 21:33N 40°10' E 002°12'2019.6
2014-Oct-11 20:33N 39°51' E 002°12'1919.2
2014-Oct-11 19:33N 39°32' E 002°16'1615.7
2014-Oct-11 18:33N 39°28' E 002°36'5 5.2
2014-Oct-11 17:32N 39°33' E 002°38'0 0.0
2014-Oct-11 16:15N 39°33' E 002°38'0 0.0
2014-Oct-11 15:33N 39°33' E 002°38'0 0.0
2014-Oct-11 14:31N 39°33' E 002°38'0 0.0
2014-Oct-11 12:32N 39°33' E 002°38'0 0.0
2014-Oct-11 11:33N 39°33' E 002°38'1 0.4
2014-Oct-11 10:15N 39°33' E 002°38'811.0
2014-Oct-11 09:33N 39°26' E 002°34'1515.2
2014-Oct-11 08:33N 39°32' E 002°16'1817.5
2014-Oct-11 07:33N 39°48' E 002°26'2121.1
2014-Oct-11 06:33N 40°04' E 002°43'2221.7
2014-Oct-11 05:34N 40°19' E 003°03'2221.8
2014-Oct-11 04:33N 40°34' E 003°23'9320.4
2014-Oct-11 00:00N 41°42' E 004°48'   250 / 201012.0 5.4 23.0 23.0
Track history (hours):
 
Tides and Currents Weather Stations Pressure Air Temp Water Temp Dewpoint Dewpoint Depression Visibility Wind Speed Wind Dir Waves Ship Positions

Norwegian Epic

Last reported at 2014-Oct-21 00:00 UTC. Time now 2014-Oct-21 11:53 UTC.
Position N 40°42' E 012°54'.

Length 329 m; draft 9 m.

Type: Passenger vessel. MMSI: 311018500.

Waves 0.5 meters (2 feet), 1 second period

Barometer 1019.0 mb
Air temperature 22.0 ° C
Visibility: greater than 10.8 NM
Water temperature 23.0 ° C

Date/timePositionNaut miles runAvg speedWind from/ knotsBaromVisibWave heightAir tempDewpointWater temp
2014-Oct-21 00:00N 40°42' E 012°54'16713.4 1019.010.8 0.522.0 23.0
2014-Oct-20 11:33N 41°19' E 009°18'1917.7
2014-Oct-20 10:29N 41°17' E 008°53'3216.5
2014-Oct-20 08:32N 41°17' E 008°10'4017.2
2014-Oct-20 06:14N 41°17' E 007°17'1040.1
2014-Oct-20 06:00N 41°12' E 007°06'2215.0 300 / 161023.0 1.022.320.422.0
2014-Oct-20 04:32N 41°17' E 006°38'3617.5
2014-Oct-20 02:29N 41°16' E 005°50'1817.5
2014-Oct-20 01:26N 41°16' E 005°26'2317.5
2014-Oct-20 00:06N 41°16' E 004°54'657.5
2014-Oct-20 00:00N 41°12' E 004°48'614.4 1023.010.8 1.522.0 23.0
2014-Oct-19 23:33N 41°16' E 004°42'2217.3
2014-Oct-19 22:18N 41°16' E 004°13'1216.7
2014-Oct-19 21:33N 41°16' E 003°56'2624.7
2014-Oct-19 20:30N 41°16' E 003°22'8 8.0
2014-Oct-19 19:33N 41°16' E 003°12'1616.1
2014-Oct-19 18:34N 41°16' E 002°50'1616.0
2014-Oct-19 17:33N 41°16' E 002°29'1513.3
2014-Oct-19 16:26N 41°20' E 002°10'32 1.9
2014-Oct-19 00:00N 40°48' E 002°06'1124.6 1021.010.8 1.523.0 23.0
2014-Oct-18 23:34N 40°46' E 002°20'2119.2
2014-Oct-18 22:28N 40°25' E 002°12'1617.8
2014-Oct-18 21:33N 40°09' E 002°12'2019.2
2014-Oct-18 20:30N 39°49' E 002°13'2518.6
2014-Oct-18 19:08N 39°25' E 002°24'1015.7
2014-Oct-18 18:32N 39°28' E 002°36'6 2.8
2014-Oct-18 16:32N 39°33' E 002°38'0 0.0
2014-Oct-18 15:33N 39°33' E 002°38'0 0.0
2014-Oct-18 14:31N 39°33' E 002°38'0 0.0
2014-Oct-18 13:28N 39°33' E 002°38'0 0.0
2014-Oct-18 12:32N 39°33' E 002°38'0 0.0
2014-Oct-18 11:33N 39°33' E 002°38'0 0.0
2014-Oct-18 10:33N 39°33' E 002°38'9 8.3
2014-Oct-18 09:31N 39°25' E 002°33'1817.7
2014-Oct-18 08:30N 39°37' E 002°15'1718.2
2014-Oct-18 07:33N 39°50' E 002°28'2020.2
2014-Oct-18 06:33N 40°06' E 002°45'916.2
2014-Oct-18 06:00N 40°12' E 002°54'1228.0 040 / 151018.0 1.022.920.122.0
2014-Oct-18 05:33N 40°21' E 003°05'2221.9
2014-Oct-18 04:33N 40°36' E 003°26'9320.5
2014-Oct-18 00:00N 41°42' E 004°54'3524.1 1018.010.8 2.523.0 23.0
2014-Oct-17 22:33N 42°06' E 005°27'2121.4
2014-Oct-17 21:33N 42°21' E 005°48'2019.9
2014-Oct-17 20:33N 42°35' E 006°07'2019.8
2014-Oct-17 19:33N 42°49' E 006°27'2019.8
2014-Oct-17 18:33N 43°03' E 006°46'1919.1
2014-Oct-17 17:33N 43°20' E 006°57'1212.4
2014-Oct-17 16:33N 43°32' E 007°01'0 0.2
2014-Oct-17 15:29N 43°32' E 007°01'0 0.0
2014-Oct-17 14:29N 43°32' E 007°01'0 0.0
2014-Oct-17 13:33N 43°32' E 007°01'0 0.0
2014-Oct-17 12:33N 43°32' E 007°01'0 0.0
2014-Oct-17 11:33N 43°32' E 007°01'0 0.0
2014-Oct-17 10:33N 43°32' E 007°01'0 0.0
2014-Oct-17 09:33N 43°32' E 007°01'0 0.0
2014-Oct-17 08:33N 43°32' E 007°01'0 0.0
2014-Oct-17 07:33N 43°32' E 007°01'0 0.0
2014-Oct-17 06:33N 43°32' E 007°01'0 0.1
2014-Oct-17 05:33N 43°32' E 007°01'7 6.9
2014-Oct-17 04:33N 43°28' E 007°08'1313.4
2014-Oct-17 03:33N 43°28' E 007°27'1312.5
2014-Oct-17 02:33N 43°29' E 007°44'2811.5
2014-Oct-17 00:09N 43°30' E 008°22'639.8
2014-Oct-17 00:00N 43°24' E 008°24'921.8 1014.010.8 2.523.0 23.0
2014-Oct-16 23:34N 43°30' E 008°34'1514.5
2014-Oct-16 22:33N 43°31' E 008°54'1414.0
2014-Oct-16 21:33N 43°31' E 009°13'1414.2
2014-Oct-16 20:33N 43°32' E 009°33'1111.2
2014-Oct-16 19:33N 43°33' E 009°48'1211.7
2014-Oct-16 18:33N 43°30' E 010°04'1010.0
2014-Oct-16 17:33N 43°32' E 010°17'1 0.9
2014-Oct-16 16:32N 43°33' E 010°18'0 0.0
2014-Oct-16 15:33N 43°33' E 010°18'0 0.0
2014-Oct-16 14:31N 43°33' E 010°18'0 0.0
2014-Oct-16 13:31N 43°33' E 010°18'0 0.0
2014-Oct-16 12:32N 43°33' E 010°18'0 0.0
2014-Oct-16 11:33N 43°33' E 010°18'0 0.0
2014-Oct-16 10:33N 43°33' E 010°18'0 0.0
2014-Oct-16 09:31N 43°33' E 010°18'0 0.0
2014-Oct-16 08:33N 43°33' E 010°18'0 0.0
2014-Oct-16 07:29N 43°33' E 010°18'0 0.0
2014-Oct-16 06:33N 43°33' E 010°18'0 0.0
2014-Oct-16 05:31N 43°33' E 010°18'0 0.2
2014-Oct-16 04:33N 43°33' E 010°18'9 9.4
2014-Oct-16 03:33N 43°25' E 010°11'1414.3
2014-Oct-16 02:34N 43°11' E 010°06'1615.8
2014-Oct-16 01:33N 42°56' E 009°59'2616.9
2014-Oct-16 00:00N 42°30' E 009°54'122 5.1 1011.010.8 2.022.0 23.0
2014-Oct-15 00:00N 41°24' E 012°12'7316.5 080 / 141009.0 1.024.422.424.0
2014-Oct-14 19:34N 40°40' E 013°30'1919.3
2014-Oct-14 18:34N 40°38' E 013°55'1817.5
2014-Oct-14 17:33N 40°46' E 014°15'4 1.0
2014-Oct-14 13:28N 40°50' E 014°16'0 0.0
2014-Oct-14 12:31N 40°50' E 014°16'0 0.0
2014-Oct-14 11:31N 40°50' E 014°16'0 0.0
2014-Oct-14 10:32N 40°50' E 014°16'0 0.0
2014-Oct-14 09:33N 40°50' E 014°16'0 0.0
2014-Oct-14 08:33N 40°50' E 014°16'59 6.9
2014-Oct-14 00:00N 40°36' E 013°00'37815.8 150 / 161014.0 5.4 23.0 22.0
2014-Oct-13 00:00N 41°12' E 004°42'5716.3 210 / 91010.0 5.4 23.0 22.0
2014-Oct-12 20:29N 41°16' E 003°26'1516.2
2014-Oct-12 19:33N 41°16' E 003°06'1616.1
2014-Oct-12 18:33N 41°16' E 002°45'1716.7
2014-Oct-12 17:33N 41°15' E 002°23'1110.5
2014-Oct-12 16:33N 41°20' E 002°10'1 1.4
2014-Oct-12 15:28N 41°22' E 002°11'0 0.0
2014-Oct-12 14:05N 41°22' E 002°11'0 0.0
2014-Oct-12 13:29N 41°22' E 002°11'0 0.0
2014-Oct-12 12:20N 41°22' E 002°11'0 0.0
2014-Oct-12 11:30N 41°22' E 002°11'0 0.0
2014-Oct-12 10:19N 41°22' E 002°11'0 0.0
2014-Oct-12 07:15N 41°22' E 002°11'0 0.0
2014-Oct-12 06:16N 41°22' E 002°11'0 0.0
2014-Oct-12 05:28N 41°22' E 002°11'0 0.0
2014-Oct-12 04:05N 41°22' E 002°11'0 0.0
2014-Oct-12 03:30N 41°22' E 002°11'0 0.0
2014-Oct-12 02:25N 41°22' E 002°11'3 4.0
2014-Oct-12 01:33N 41°18' E 002°10'1615.5
2014-Oct-12 00:33N 41°03' E 002°11'1017.5
2014-Oct-12 00:00N 40°54' E 002°06'920.4 060 / 151010.0 5.4 22.0 22.0
2014-Oct-11 23:34N 40°46' E 002°12'1716.8
2014-Oct-11 22:33N 40°29' E 002°12'1919.1
2014-Oct-11 21:33N 40°10' E 002°12'2019.6
2014-Oct-11 20:33N 39°51' E 002°12'1919.2
2014-Oct-11 19:33N 39°32' E 002°16'1615.7
2014-Oct-11 18:33N 39°28' E 002°36'5 5.2
2014-Oct-11 17:32N 39°33' E 002°38'0 0.0
2014-Oct-11 16:15N 39°33' E 002°38'0 0.0
2014-Oct-11 15:33N 39°33' E 002°38'0 0.0
2014-Oct-11 14:31N 39°33' E 002°38'0 0.0
2014-Oct-11 12:32N 39°33' E 002°38'0 0.0
2014-Oct-11 11:33N 39°33' E 002°38'1 0.4
2014-Oct-11 10:15N 39°33' E 002°38'811.0
2014-Oct-11 09:33N 39°26' E 002°34'1515.2
2014-Oct-11 08:33N 39°32' E 002°16'1817.5
2014-Oct-11 07:33N 39°48' E 002°26'2121.1
2014-Oct-11 06:33N 40°04' E 002°43'2221.7
2014-Oct-11 05:34N 40°19' E 003°03'2221.8
2014-Oct-11 04:33N 40°34' E 003°23'9320.4
2014-Oct-11 00:00N 41°42' E 004°48'   250 / 201012.0 5.4 23.0 23.0

Dump ship's entire track history